createdAt,value
2018-11-10T00:00:38.773Z,8.43
2018-11-10T00:01:46.844Z,8.29
2018-11-10T00:02:54.900Z,8.25
2018-11-10T00:04:02.969Z,8.25
2018-11-10T00:05:11.037Z,8.29
2018-11-10T00:06:19.110Z,8.26
2018-11-10T00:07:27.134Z,8.26
2018-11-10T00:08:35.206Z,8.29
2018-11-10T00:09:43.293Z,8.22
2018-11-10T00:10:51.338Z,8.29
2018-11-10T00:11:59.408Z,8.36
2018-11-10T00:13:07.458Z,8.28
2018-11-10T00:14:15.510Z,8.28
2018-11-10T00:15:23.574Z,8.30
2018-11-10T00:16:31.717Z,8.37
2018-11-10T00:17:39.707Z,8.30
2018-11-10T00:18:47.783Z,8.40
2018-11-10T00:19:55.848Z,8.33
2018-11-10T00:21:03.903Z,8.34
2018-11-10T00:22:11.954Z,8.45
2018-11-10T00:23:20.026Z,8.40
2018-11-10T00:24:28.081Z,8.36
2018-11-10T00:25:36.132Z,8.34
2018-11-10T00:26:44.225Z,8.34
2018-11-10T00:27:52.265Z,8.36
2018-11-10T00:29:00.313Z,8.47
2018-11-10T00:30:08.386Z,8.40
2018-11-10T00:31:16.457Z,8.45
2018-11-10T00:32:24.509Z,8.50
2018-11-10T00:33:32.594Z,8.40
2018-11-10T00:34:40.703Z,8.40
2018-11-10T00:35:48.706Z,8.40
2018-11-10T00:36:56.754Z,8.44
2018-11-10T00:38:04.812Z,8.43
2018-11-10T00:39:12.905Z,8.48
2018-11-10T00:40:20.924Z,8.45
2018-11-10T00:41:29.010Z,8.45
2018-11-10T00:42:37.076Z,8.50
2018-11-10T00:43:45.115Z,8.40
2018-11-10T00:44:53.187Z,8.41
2018-11-10T00:46:01.267Z,8.44
2018-11-10T00:47:09.339Z,8.40
2018-11-10T00:48:17.391Z,8.40
2018-11-10T00:49:25.437Z,8.40
2018-11-10T00:50:33.502Z,8.44
2018-11-10T00:51:41.554Z,8.50
2018-11-10T00:52:49.633Z,8.34
2018-11-10T00:53:57.675Z,8.37
2018-11-10T00:55:05.738Z,8.48
2018-11-10T00:56:13.843Z,8.47
2018-11-10T00:57:21.872Z,8.48
2018-11-10T00:58:29.937Z,8.44
2018-11-10T00:59:37.980Z,8.47
2018-11-10T01:00:46.073Z,8.44
2018-11-10T01:01:54.121Z,8.44
2018-11-10T01:03:02.175Z,8.53
2018-11-10T01:04:10.217Z,8.52
2018-11-10T01:05:18.300Z,8.43
2018-11-10T01:06:26.375Z,8.45
2018-11-10T01:07:34.413Z,8.52
2018-11-10T01:08:42.504Z,8.48
2018-11-10T01:09:50.560Z,8.41
2018-11-10T01:10:58.593Z,8.40
2018-11-10T01:12:06.689Z,8.38
2018-11-10T01:13:14.723Z,8.37
2018-11-10T01:14:22.820Z,8.36
2018-11-10T01:15:30.877Z,8.40
2018-11-10T01:16:38.919Z,8.38
2018-11-10T01:17:46.994Z,8.45
2018-11-10T01:18:55.009Z,8.30
2018-11-10T01:20:03.105Z,8.28
2018-11-10T01:21:11.173Z,8.34
2018-11-10T01:22:19.238Z,8.33
2018-11-10T01:23:27.272Z,8.33
2018-11-10T01:24:35.362Z,8.38
2018-11-10T01:25:43.409Z,8.48
2018-11-10T01:26:51.486Z,8.34
2018-11-10T01:27:59.616Z,8.38
2018-11-10T01:29:07.612Z,8.36
2018-11-10T01:30:15.639Z,8.38
2018-11-10T01:31:23.708Z,8.36
2018-11-10T01:32:31.778Z,8.36
2018-11-10T01:33:39.864Z,8.34
2018-11-10T01:34:47.918Z,8.34
2018-11-10T01:35:55.971Z,8.34
2018-11-10T01:37:04.029Z,8.29
2018-11-10T01:38:12.091Z,8.34
2018-11-10T01:39:20.169Z,8.41
2018-11-10T01:40:28.235Z,8.37
2018-11-10T01:41:36.302Z,8.38
2018-11-10T01:42:44.341Z,8.40
2018-11-10T01:43:52.406Z,8.36
2018-11-10T01:45:00.471Z,8.30
2018-11-10T01:46:08.527Z,8.30
2018-11-10T01:47:16.589Z,8.34
2018-11-10T01:48:24.611Z,8.25
2018-11-10T01:49:32.729Z,8.22
2018-11-10T01:50:40.765Z,8.26
2018-11-10T01:51:48.824Z,8.26
2018-11-10T01:52:56.880Z,8.26
2018-11-10T01:54:04.977Z,8.16
2018-11-10T01:55:13.021Z,8.12
2018-11-10T01:56:21.093Z,8.12
2018-11-10T01:57:29.253Z,8.12
2018-11-10T01:58:37.239Z,8.12
2018-11-10T01:59:45.262Z,8.16
2018-11-10T02:00:53.330Z,8.29
2018-11-10T02:02:01.412Z,8.12
2018-11-10T02:03:09.468Z,8.10
2018-11-10T02:04:17.512Z,8.15
2018-11-10T02:05:25.584Z,8.16
2018-11-10T02:06:33.663Z,8.15
2018-11-10T02:07:41.696Z,8.11
2018-11-10T02:08:49.756Z,8.08
2018-11-10T02:09:57.842Z,8.18
2018-11-10T02:11:05.876Z,8.18
2018-11-10T02:12:13.959Z,8.11
2018-11-10T02:13:22.016Z,8.12
2018-11-10T02:14:30.067Z,8.15
2018-11-10T02:15:38.148Z,8.11
2018-11-10T02:16:46.191Z,8.18
2018-11-10T02:17:54.251Z,8.10
2018-11-10T02:19:02.321Z,8.26
2018-11-10T02:20:10.366Z,8.12
2018-11-10T02:21:18.452Z,8.11
2018-11-10T02:22:26.504Z,8.12
2018-11-10T02:23:34.543Z,8.12
2018-11-10T02:24:42.615Z,8.15
2018-11-10T02:25:50.692Z,8.16
2018-11-10T02:26:58.748Z,8.11
2018-11-10T02:28:06.802Z,8.05
2018-11-10T02:29:14.859Z,8.18
2018-11-10T02:30:22.926Z,8.16
2018-11-10T02:31:31.009Z,8.16
2018-11-10T02:32:39.051Z,8.16
2018-11-10T02:33:47.112Z,8.16
2018-11-10T02:34:55.228Z,8.18
2018-11-10T02:36:03.255Z,8.10
2018-11-10T02:37:11.309Z,8.11
2018-11-10T02:38:19.345Z,8.11
2018-11-10T02:39:27.427Z,8.12
2018-11-10T02:40:35.477Z,8.10
2018-11-10T02:41:43.584Z,8.11
2018-11-10T02:42:51.599Z,8.11
2018-11-10T02:43:59.652Z,8.08
2018-11-10T02:45:07.736Z,8.15
2018-11-10T02:46:15.787Z,8.11
2018-11-10T02:47:23.860Z,8.18
2018-11-10T02:48:31.907Z,8.18
2018-11-10T02:49:39.992Z,8.15
2018-11-10T02:50:48.045Z,8.18
2018-11-10T02:51:56.141Z,8.10
2018-11-10T02:53:04.158Z,8.11
2018-11-10T02:54:12.219Z,8.12
2018-11-10T02:55:20.280Z,8.07
2018-11-10T02:56:28.356Z,8.16
2018-11-10T02:57:36.400Z,8.11
2018-11-10T02:58:44.474Z,8.16
2018-11-10T02:59:52.531Z,8.11
2018-11-10T03:01:00.595Z,8.19
2018-11-10T03:02:08.645Z,8.10
2018-11-10T03:03:16.717Z,8.12
2018-11-10T03:04:24.769Z,8.19
2018-11-10T03:05:32.840Z,8.15
2018-11-10T03:06:40.913Z,8.15
2018-11-10T03:07:48.968Z,8.20
2018-11-10T03:08:57.032Z,8.18
2018-11-10T03:10:05.093Z,8.16
2018-11-10T03:11:13.168Z,8.15
2018-11-10T03:12:21.210Z,8.11
2018-11-10T03:13:29.266Z,8.15
2018-11-10T03:14:37.333Z,8.15
2018-11-10T03:15:45.382Z,8.10
2018-11-10T03:16:53.461Z,8.16
2018-11-10T03:18:01.522Z,8.11
2018-11-10T03:19:09.586Z,8.11
2018-11-10T03:20:17.639Z,8.07
2018-11-10T03:21:25.715Z,8.05
2018-11-10T03:22:33.770Z,8.08
2018-11-10T03:23:41.825Z,8.11
2018-11-10T03:24:49.888Z,8.12
2018-11-10T03:25:57.944Z,8.04
2018-11-10T03:27:06.022Z,7.95
2018-11-10T03:28:14.071Z,8.00
2018-11-10T03:29:22.142Z,7.97
2018-11-10T03:30:30.200Z,7.90
2018-11-10T03:31:38.265Z,7.97
2018-11-10T03:32:46.334Z,7.98
2018-11-10T03:33:54.362Z,7.98
2018-11-10T03:35:02.453Z,7.98
2018-11-10T03:36:10.515Z,8.00
2018-11-10T03:37:18.570Z,7.93
2018-11-10T03:38:26.637Z,7.93
2018-11-10T03:39:34.657Z,7.93
2018-11-10T03:40:42.745Z,8.05
2018-11-10T03:41:50.795Z,8.05
2018-11-10T03:42:58.885Z,8.04
2018-11-10T03:44:06.931Z,8.07
2018-11-10T03:45:14.991Z,8.00
2018-11-10T03:46:23.089Z,8.02
2018-11-10T03:47:31.134Z,7.97
2018-11-10T03:48:39.246Z,7.98
2018-11-10T03:49:47.244Z,8.05
2018-11-10T03:50:55.307Z,8.00
2018-11-10T03:52:03.375Z,7.97
2018-11-10T03:53:11.435Z,8.02
2018-11-10T03:54:19.498Z,7.97
2018-11-10T03:55:27.550Z,8.02
2018-11-10T03:56:35.621Z,8.10
2018-11-10T03:57:43.690Z,8.04
2018-11-10T03:58:51.741Z,8.01
2018-11-10T03:59:59.801Z,8.07
2018-11-10T04:01:07.891Z,8.04
2018-11-10T04:02:15.924Z,7.97
2018-11-10T04:03:23.988Z,7.92
2018-11-10T04:04:32.049Z,7.90
2018-11-10T04:05:40.116Z,7.89
2018-11-10T04:06:48.179Z,7.87
2018-11-10T04:07:56.231Z,7.90
2018-11-10T04:09:04.338Z,7.87
2018-11-10T04:10:12.364Z,7.90
2018-11-10T04:11:20.409Z,7.93
2018-11-10T04:12:28.494Z,7.87
2018-11-10T04:13:36.573Z,7.90
2018-11-10T04:14:44.580Z,7.93
2018-11-10T04:15:52.679Z,7.89
2018-11-10T04:17:00.730Z,7.87
2018-11-10T04:18:08.794Z,7.87
2018-11-10T04:19:16.856Z,7.90
2018-11-10T04:20:24.915Z,7.92
2018-11-10T04:21:32.969Z,7.92
2018-11-10T04:22:41.036Z,7.90
2018-11-10T04:23:49.109Z,7.87
2018-11-10T04:24:57.140Z,7.93
2018-11-10T04:26:05.424Z,7.93
2018-11-10T04:27:13.279Z,8.02
2018-11-10T04:28:21.326Z,8.01
2018-11-10T04:29:29.388Z,7.97
2018-11-10T04:30:37.469Z,8.00
2018-11-10T04:31:45.518Z,7.92
2018-11-10T04:32:53.585Z,7.95
2018-11-10T04:34:01.642Z,7.82
2018-11-10T04:35:09.721Z,7.86
2018-11-10T04:36:17.765Z,7.85
2018-11-10T04:37:25.831Z,7.87
2018-11-10T04:38:33.888Z,7.83
2018-11-10T04:39:41.938Z,7.80
2018-11-10T04:40:50.019Z,7.80
2018-11-10T04:41:58.086Z,7.77
2018-11-10T04:43:06.124Z,7.79
2018-11-10T04:44:14.194Z,7.80
2018-11-10T04:45:22.273Z,7.71
2018-11-10T04:46:30.324Z,7.77
2018-11-10T04:47:38.391Z,7.77
2018-11-10T04:48:46.426Z,7.82
2018-11-10T04:49:54.594Z,7.74
2018-11-10T04:51:02.567Z,7.79
2018-11-10T04:52:10.634Z,7.77
2018-11-10T04:53:18.708Z,7.80
2018-11-10T04:54:26.766Z,7.77
2018-11-10T04:55:34.799Z,7.82
2018-11-10T04:56:42.870Z,7.79
2018-11-10T04:57:50.936Z,7.85
2018-11-10T04:58:59.006Z,7.80
2018-11-10T05:00:07.048Z,7.69
2018-11-10T05:01:15.186Z,7.75
2018-11-10T05:02:23.205Z,7.77
2018-11-10T05:03:31.275Z,7.82
2018-11-10T05:04:39.320Z,7.77
2018-11-10T05:05:47.367Z,7.79
2018-11-10T05:06:55.420Z,7.80
2018-11-10T05:08:03.487Z,7.75
2018-11-10T05:09:11.543Z,7.75
2018-11-10T05:10:19.606Z,7.87
2018-11-10T05:11:27.693Z,7.83
2018-11-10T05:12:35.728Z,7.85
2018-11-10T05:13:43.797Z,7.86
2018-11-10T05:14:51.862Z,7.86
2018-11-10T05:15:59.920Z,7.87
2018-11-10T05:17:08.001Z,7.85
2018-11-10T05:18:16.063Z,7.85
2018-11-10T05:19:24.103Z,7.89
2018-11-10T05:20:32.149Z,7.89
2018-11-10T05:21:40.231Z,7.92
2018-11-10T05:22:48.278Z,7.89
2018-11-10T05:23:56.362Z,7.97
2018-11-10T05:25:04.428Z,7.95
2018-11-10T05:26:12.476Z,7.93
2018-11-10T05:27:20.517Z,7.98
2018-11-10T05:28:28.588Z,7.97
2018-11-10T05:29:36.660Z,7.90
2018-11-10T05:30:44.704Z,7.97
2018-11-10T05:31:52.789Z,7.95
2018-11-10T05:33:00.862Z,8.01
2018-11-10T05:34:08.910Z,7.93
2018-11-10T05:35:16.958Z,8.02
2018-11-10T05:36:24.997Z,7.98
2018-11-10T05:37:33.089Z,7.93
2018-11-10T05:38:41.153Z,7.97
2018-11-10T05:39:49.212Z,7.95
2018-11-10T05:40:57.272Z,7.95
2018-11-10T05:42:05.339Z,7.93
2018-11-10T05:43:13.398Z,7.98
2018-11-10T05:44:21.466Z,7.98
2018-11-10T05:45:29.528Z,7.93
2018-11-10T05:46:37.582Z,7.90
2018-11-10T05:47:45.637Z,7.97
2018-11-10T05:48:53.703Z,7.93
2018-11-10T05:50:01.748Z,7.93
2018-11-10T05:51:09.854Z,8.01
2018-11-10T05:52:17.928Z,7.98
2018-11-10T05:53:26.239Z,7.97
2018-11-10T05:54:34.470Z,7.97
2018-11-10T05:55:42.077Z,7.92
2018-11-10T05:56:50.123Z,7.89
2018-11-10T05:57:58.198Z,7.90
2018-11-10T05:59:06.236Z,7.93
2018-11-10T06:00:14.309Z,7.97
2018-11-10T06:01:22.378Z,7.98
2018-11-10T06:02:30.428Z,7.90
2018-11-10T06:03:38.504Z,7.90
2018-11-10T06:04:46.560Z,7.87
2018-11-10T06:05:54.603Z,7.85
2018-11-10T06:07:02.697Z,7.89
2018-11-10T06:08:10.753Z,7.86
2018-11-10T06:09:18.895Z,7.85
2018-11-10T06:10:26.965Z,7.85
2018-11-10T06:11:34.917Z,7.87
2018-11-10T06:12:43.516Z,7.75
2018-11-10T06:13:51.048Z,7.79
2018-11-10T06:14:59.104Z,7.77
2018-11-10T06:16:07.242Z,7.80
2018-11-10T06:17:15.252Z,7.74
2018-11-10T06:18:23.299Z,7.83
2018-11-10T06:19:31.347Z,7.82
2018-11-10T06:20:39.418Z,7.75
2018-11-10T06:21:47.475Z,7.79
2018-11-10T06:22:55.544Z,7.82
2018-11-10T06:24:03.585Z,7.80
2018-11-10T06:25:11.657Z,7.79
2018-11-10T06:26:19.710Z,7.79
2018-11-10T06:27:27.879Z,7.86
2018-11-10T06:28:35.836Z,7.79
2018-11-10T06:29:43.900Z,7.82
2018-11-10T06:30:51.957Z,7.77
2018-11-10T06:32:00.007Z,7.72
2018-11-10T06:33:08.083Z,7.83
2018-11-10T06:34:16.148Z,7.83
2018-11-10T06:35:24.220Z,7.85
2018-11-10T06:36:32.266Z,7.74
2018-11-10T06:37:40.355Z,7.67
2018-11-10T06:38:48.400Z,7.64
2018-11-10T06:39:56.478Z,7.53
2018-11-10T06:41:04.518Z,7.63
2018-11-10T06:42:12.576Z,7.61
2018-11-10T06:43:20.647Z,7.74
2018-11-10T06:44:28.704Z,7.71
2018-11-10T06:45:36.762Z,7.68
2018-11-10T06:46:44.805Z,7.68
2018-11-10T06:47:52.911Z,7.61
2018-11-10T06:49:00.956Z,7.61
2018-11-10T06:50:09.009Z,7.61
2018-11-10T06:51:17.055Z,7.61
2018-11-10T06:52:25.117Z,7.58
2018-11-10T06:53:33.193Z,7.72
2018-11-10T06:54:41.260Z,7.80
2018-11-10T06:55:49.312Z,7.79
2018-11-10T06:56:57.390Z,7.80
2018-11-10T06:58:05.439Z,7.80
2018-11-10T06:59:13.523Z,7.87
2018-11-10T07:00:21.564Z,7.86
2018-11-10T07:01:29.610Z,7.87
2018-11-10T07:02:37.702Z,7.77
2018-11-10T07:03:45.725Z,7.83
2018-11-10T07:04:53.812Z,7.83
2018-11-10T07:06:01.858Z,7.86
2018-11-10T07:07:09.913Z,7.86
2018-11-10T07:08:17.984Z,7.86
2018-11-10T07:09:26.132Z,7.97
2018-11-10T07:10:34.127Z,8.00
2018-11-10T07:11:42.191Z,8.07
2018-11-10T07:12:50.492Z,8.02
2018-11-10T07:13:58.307Z,8.08
2018-11-10T07:15:06.339Z,8.08
2018-11-10T07:16:14.420Z,8.12
2018-11-10T07:17:22.561Z,8.16
2018-11-10T07:18:30.587Z,8.18
2018-11-10T07:19:38.597Z,8.22
2018-11-10T07:20:46.660Z,8.38
2018-11-10T07:21:54.703Z,8.29
2018-11-10T07:23:02.810Z,8.38
2018-11-10T07:24:10.861Z,8.34
2018-11-10T07:25:18.921Z,8.40
2018-11-10T07:26:26.972Z,8.29
2018-11-10T07:27:34.999Z,8.37
2018-11-10T07:28:43.077Z,8.37
2018-11-10T07:29:51.188Z,8.38
2018-11-10T07:30:59.220Z,8.43
2018-11-10T07:32:07.364Z,8.53
2018-11-10T07:33:15.356Z,8.47
2018-11-10T07:34:23.409Z,8.59
2018-11-10T07:35:31.477Z,8.58
2018-11-10T07:36:39.559Z,8.63
2018-11-10T07:37:47.596Z,8.63
2018-11-10T07:38:55.673Z,8.65
2018-11-10T07:40:03.737Z,8.70
2018-11-10T07:41:11.771Z,8.66
2018-11-10T07:42:19.843Z,8.76
2018-11-10T07:43:27.919Z,8.77
2018-11-10T07:44:35.966Z,8.79
2018-11-10T07:45:44.031Z,8.79
2018-11-10T07:46:52.103Z,8.77
2018-11-10T07:48:00.217Z,8.68
2018-11-10T07:49:08.270Z,8.71
2018-11-10T07:50:16.289Z,8.81
2018-11-10T07:51:24.472Z,8.66
2018-11-10T07:52:32.407Z,8.81
2018-11-10T07:53:40.471Z,8.83
2018-11-10T07:54:48.558Z,8.81
2018-11-10T07:55:56.613Z,8.73
2018-11-10T07:57:04.647Z,8.76
2018-11-10T07:58:12.711Z,8.73
2018-11-10T07:59:20.779Z,8.74
2018-11-10T08:00:28.863Z,8.76
2018-11-10T08:01:36.897Z,8.80
2018-11-10T08:02:45.014Z,8.83
2018-11-10T08:03:53.036Z,8.80
2018-11-10T08:05:01.113Z,8.76
2018-11-10T08:06:09.147Z,8.77
2018-11-10T08:07:17.216Z,8.86
2018-11-10T08:08:25.277Z,8.83
2018-11-10T08:09:33.341Z,8.83
2018-11-10T08:10:41.414Z,8.81
2018-11-10T08:11:49.546Z,8.86
2018-11-10T08:12:57.544Z,8.83
2018-11-10T08:14:05.580Z,8.83
2018-11-10T08:15:13.652Z,8.89
2018-11-10T08:16:21.739Z,8.92
2018-11-10T08:17:29.774Z,9.02
2018-11-10T08:18:37.913Z,9.02
2018-11-10T08:19:45.884Z,8.92
2018-11-10T08:20:53.964Z,8.95
2018-11-10T08:22:02.026Z,8.98
2018-11-10T08:23:10.078Z,8.98
2018-11-10T08:24:18.146Z,9.04
2018-11-10T08:25:26.218Z,9.10
2018-11-10T08:26:34.273Z,9.10
2018-11-10T08:27:42.356Z,9.13
2018-11-10T08:28:50.402Z,9.02
2018-11-10T08:29:58.489Z,9.04
2018-11-10T08:31:06.612Z,9.04
2018-11-10T08:32:14.575Z,9.02
2018-11-10T08:33:22.661Z,9.11
2018-11-10T08:34:30.712Z,9.14
2018-11-10T08:35:38.797Z,9.14
2018-11-10T08:36:46.916Z,9.23
2018-11-10T08:37:54.873Z,9.20
2018-11-10T08:39:02.960Z,9.24
2018-11-10T08:40:11.039Z,9.14
2018-11-10T08:41:19.100Z,9.21
2018-11-10T08:42:27.149Z,9.26
2018-11-10T08:43:35.209Z,9.18
2018-11-10T08:44:43.290Z,9.17
2018-11-10T08:45:51.338Z,9.18
2018-11-10T08:46:59.405Z,9.32
2018-11-10T08:48:07.465Z,9.32
2018-11-10T08:49:15.629Z,9.48
2018-11-10T08:50:23.584Z,9.51
2018-11-10T08:51:31.649Z,9.36
2018-11-10T08:52:39.707Z,9.32
2018-11-10T08:53:47.791Z,9.36
2018-11-10T08:54:55.847Z,9.36
2018-11-10T08:56:03.911Z,9.51
2018-11-10T08:57:11.979Z,9.53
2018-11-10T08:58:20.057Z,9.58
2018-11-10T08:59:28.110Z,9.71
2018-11-10T09:00:36.172Z,9.68
2018-11-10T09:01:44.232Z,9.72
2018-11-10T09:02:52.301Z,9.64
2018-11-10T09:04:00.368Z,9.66
2018-11-10T09:05:08.403Z,9.72
2018-11-10T09:06:16.492Z,9.79
2018-11-10T09:07:24.543Z,9.86
2018-11-10T09:08:32.615Z,9.94
2018-11-10T09:09:40.680Z,9.97
2018-11-10T09:10:48.738Z,9.96
2018-11-10T09:11:56.792Z,9.94
2018-11-10T09:13:04.864Z,9.81
2018-11-10T09:14:12.918Z,9.89
2018-11-10T09:15:20.998Z,9.84
2018-11-10T09:16:29.082Z,9.89
2018-11-10T09:17:37.200Z,9.87
2018-11-10T09:18:45.197Z,9.87
2018-11-10T09:19:53.267Z,9.94
2018-11-10T09:21:01.337Z,9.96
2018-11-10T09:22:09.395Z,9.99
2018-11-10T09:23:17.433Z,10.02
2018-11-10T09:24:25.508Z,9.97
2018-11-10T09:25:33.561Z,9.97
2018-11-10T09:26:41.658Z,10.14
2018-11-10T09:27:49.687Z,10.15
2018-11-10T09:28:57.760Z,10.15
2018-11-10T09:30:05.833Z,10.14
2018-11-10T09:31:13.885Z,10.32
2018-11-10T09:32:21.964Z,10.41
2018-11-10T09:33:30.014Z,10.45
2018-11-10T09:34:38.136Z,10.51
2018-11-10T09:35:46.179Z,10.48
2018-11-10T09:36:54.199Z,10.52
2018-11-10T09:38:02.277Z,10.52
2018-11-10T09:39:10.332Z,10.47
2018-11-10T09:40:18.417Z,10.41
2018-11-10T09:41:26.475Z,10.32
2018-11-10T09:42:34.744Z,10.41
2018-11-10T09:43:42.605Z,10.47
2018-11-10T09:44:50.672Z,10.55
2018-11-10T09:45:58.704Z,10.51
2018-11-10T09:47:06.799Z,10.53
2018-11-10T09:48:14.876Z,10.55
2018-11-10T09:49:22.948Z,10.70
2018-11-10T09:50:31.009Z,10.66
2018-11-10T09:51:39.022Z,10.70
2018-11-10T09:52:47.116Z,10.68
2018-11-10T09:53:55.188Z,10.71
2018-11-10T09:55:03.256Z,10.73
2018-11-10T09:56:11.300Z,10.66
2018-11-10T09:57:19.364Z,10.56
2018-11-10T09:58:27.436Z,10.56
2018-11-10T09:59:35.503Z,10.70
2018-11-10T10:00:43.586Z,10.76
2018-11-10T10:01:51.920Z,10.76
2018-11-10T10:02:59.675Z,10.78
2018-11-10T10:04:07.754Z,10.84
2018-11-10T10:05:15.839Z,10.91
2018-11-10T10:06:23.864Z,11.03
2018-11-10T10:07:31.948Z,11.06
2018-11-10T10:08:40.038Z,11.10
2018-11-10T10:09:50.097Z,11.14
2018-11-10T10:12:13.487Z,11.33
2018-11-10T10:13:21.528Z,11.39
2018-11-10T10:14:29.614Z,11.32
2018-11-10T10:15:37.692Z,11.24
2018-11-10T10:16:45.850Z,11.21
2018-11-10T10:17:56.865Z,11.07
2018-11-10T10:19:01.889Z,11.28
2018-11-10T10:20:09.941Z,11.39
2018-11-10T10:21:18.004Z,11.43
2018-11-10T10:22:26.083Z,11.54
2018-11-10T10:23:36.289Z,11.55
2018-11-10T10:24:43.204Z,11.62
2018-11-10T10:25:51.447Z,11.69
2018-11-10T10:26:59.561Z,11.70
2018-11-10T10:28:08.750Z,11.62
2018-11-10T10:29:15.658Z,11.76
2018-11-10T10:30:23.721Z,11.78
2018-11-10T10:31:31.766Z,11.90
2018-11-10T10:32:40.525Z,11.86
2018-11-10T10:33:47.942Z,11.91
2018-11-10T10:34:56.050Z,11.90
2018-11-10T10:36:04.069Z,11.94
2018-11-10T10:37:12.782Z,11.64
2018-11-10T10:38:20.244Z,11.58
2018-11-10T10:39:28.243Z,11.55
2018-11-10T10:40:36.302Z,11.51
2018-11-10T10:41:44.364Z,11.35
2018-11-10T10:42:52.492Z,11.32
2018-11-10T10:44:00.489Z,11.33
2018-11-10T10:45:08.569Z,11.33
2018-11-10T10:46:16.670Z,11.32
2018-11-10T10:47:24.687Z,11.42
2018-11-10T10:48:32.795Z,11.52
2018-11-10T10:49:40.821Z,11.52
2018-11-10T10:50:48.883Z,11.52
2018-11-10T10:51:56.968Z,11.54
2018-11-10T10:53:05.008Z,11.65
2018-11-10T10:54:13.058Z,11.61
2018-11-10T10:55:21.140Z,11.58
2018-11-10T10:56:29.318Z,11.58
2018-11-10T10:57:37.308Z,11.47
2018-11-10T10:58:45.340Z,11.28
2018-11-10T10:59:53.436Z,11.29
2018-11-10T11:01:01.482Z,11.32
2018-11-10T11:02:09.548Z,11.52
2018-11-10T11:03:17.645Z,11.55
2018-11-10T11:04:25.673Z,11.69
2018-11-10T11:05:33.738Z,11.78
2018-11-10T11:06:41.824Z,11.75
2018-11-10T11:07:49.926Z,11.90
2018-11-10T11:08:58.001Z,11.78
2018-11-10T11:10:05.987Z,11.85
2018-11-10T11:11:14.082Z,11.76
2018-11-10T11:12:22.142Z,11.75
2018-11-10T11:13:30.196Z,11.60
2018-11-10T11:14:38.263Z,11.69
2018-11-10T11:15:46.416Z,11.69
2018-11-10T11:16:54.411Z,11.75
2018-11-10T11:18:02.471Z,11.75
2018-11-10T11:19:10.544Z,11.75
2018-11-10T11:20:18.605Z,11.67
2018-11-10T11:21:26.637Z,11.62
2018-11-10T11:22:34.720Z,11.57
2018-11-10T11:23:42.792Z,11.57
2018-11-10T11:24:50.857Z,11.57
2018-11-10T11:25:58.926Z,11.60
2018-11-10T11:27:06.990Z,11.69
2018-11-10T11:28:15.047Z,11.65
2018-11-10T11:29:23.294Z,11.76
2018-11-10T11:30:31.179Z,11.64
2018-11-10T11:31:39.265Z,11.73
2018-11-10T11:32:47.303Z,11.51
2018-11-10T11:33:55.373Z,11.67
2018-11-10T11:35:03.490Z,11.70
2018-11-10T11:36:11.494Z,11.82
2018-11-10T11:37:19.599Z,11.99
2018-11-10T11:38:27.643Z,12.07
2018-11-10T11:39:35.711Z,12.19
2018-11-10T11:40:43.766Z,12.28
2018-11-10T11:41:51.957Z,12.46
2018-11-10T11:42:59.903Z,12.38
2018-11-10T11:44:07.976Z,12.31
2018-11-10T11:45:16.021Z,12.19
2018-11-10T11:46:24.096Z,12.24
2018-11-10T11:47:32.197Z,12.29
2018-11-10T11:48:40.256Z,12.32
2018-11-10T11:49:48.333Z,12.28
2018-11-10T11:50:56.383Z,12.27
2018-11-10T11:52:04.486Z,12.17
2018-11-10T11:53:12.526Z,12.28
2018-11-10T11:54:20.566Z,12.41
2018-11-10T11:55:28.634Z,12.41
2018-11-10T11:56:36.733Z,12.50
2018-11-10T11:57:44.914Z,12.56
2018-11-10T11:58:52.828Z,12.56
2018-11-10T12:00:00.903Z,12.57
2018-11-10T12:01:08.977Z,12.50
2018-11-10T12:02:17.123Z,12.47
2018-11-10T12:03:25.126Z,12.37
2018-11-10T12:04:33.171Z,12.53
2018-11-10T12:05:41.248Z,12.52
2018-11-10T12:06:49.291Z,12.42
2018-11-10T12:07:57.375Z,12.42
2018-11-10T12:09:05.428Z,12.46
2018-11-10T12:10:13.500Z,12.41
2018-11-10T12:11:21.583Z,12.35
2018-11-10T12:12:29.630Z,12.37
2018-11-10T12:13:37.691Z,12.39
2018-11-10T12:14:45.764Z,12.52
2018-11-10T12:15:53.828Z,12.54
2018-11-10T12:17:01.999Z,12.60
2018-11-10T12:18:09.978Z,12.54
2018-11-10T12:19:18.025Z,12.54
2018-11-10T12:20:26.087Z,12.50
2018-11-10T12:21:34.150Z,12.46
2018-11-10T12:22:42.237Z,12.41
2018-11-10T12:23:50.321Z,12.45
2018-11-10T12:24:58.340Z,12.49
2018-11-10T12:26:06.411Z,12.38
2018-11-10T12:27:14.475Z,12.34
2018-11-10T12:28:22.557Z,12.35
2018-11-10T12:29:30.626Z,12.24
2018-11-10T12:30:38.668Z,12.24
2018-11-10T12:31:46.804Z,12.27
2018-11-10T12:32:54.829Z,12.21
2018-11-10T12:34:02.870Z,12.28
2018-11-10T12:35:10.914Z,12.27
2018-11-10T12:36:19.009Z,12.32
2018-11-10T12:37:27.061Z,12.29
2018-11-10T12:38:35.187Z,12.09
2018-11-10T12:39:43.192Z,12.07
2018-11-10T12:40:51.314Z,12.10
2018-11-10T12:41:59.321Z,12.12
2018-11-10T12:43:07.396Z,12.14
2018-11-10T12:44:15.449Z,12.10
2018-11-10T12:45:23.532Z,12.04
2018-11-10T12:46:31.581Z,12.04
2018-11-10T12:47:39.754Z,11.98
2018-11-10T12:48:47.738Z,12.12
2018-11-10T12:49:55.778Z,12.09
2018-11-10T12:51:03.836Z,12.09
2018-11-10T12:52:11.954Z,12.10
2018-11-10T12:53:20.002Z,11.90
2018-11-10T12:54:28.056Z,11.91
2018-11-10T12:55:36.138Z,11.82
2018-11-10T12:56:44.173Z,11.78
2018-11-10T12:57:52.243Z,11.72
2018-11-10T12:59:00.307Z,11.69
2018-11-10T13:00:08.378Z,11.70
2018-11-10T13:01:16.439Z,11.76
2018-11-10T13:02:24.495Z,11.79
2018-11-10T13:03:32.626Z,11.67
2018-11-10T13:04:40.623Z,11.67
2018-11-10T13:05:48.695Z,11.58
2018-11-10T13:06:56.766Z,11.57
2018-11-10T13:08:04.866Z,11.57
2018-11-10T13:09:12.890Z,11.60
2018-11-10T13:10:20.932Z,11.47
2018-11-10T13:11:29.149Z,11.46
2018-11-10T13:12:37.110Z,11.43
2018-11-10T13:13:45.153Z,11.40
2018-11-10T13:14:53.192Z,11.35
2018-11-10T13:16:01.273Z,11.28
2018-11-10T13:17:09.359Z,11.33
2018-11-10T13:18:17.386Z,11.33
2018-11-10T13:19:25.473Z,11.36
2018-11-10T13:20:33.547Z,11.28
2018-11-10T13:21:41.587Z,11.36
2018-11-10T13:22:49.667Z,11.39
2018-11-10T13:23:57.739Z,11.44
2018-11-10T13:25:05.797Z,11.40
2018-11-10T13:26:13.874Z,11.25
2018-11-10T13:27:21.932Z,11.10
2018-11-10T13:28:29.963Z,11.14
2018-11-10T13:29:38.031Z,11.11
2018-11-10T13:30:46.138Z,11.14
2018-11-10T13:31:54.158Z,11.14
2018-11-10T13:33:02.229Z,11.11
2018-11-10T13:34:10.273Z,11.14
2018-11-10T13:35:18.354Z,11.14
2018-11-10T13:36:26.423Z,11.14
2018-11-10T13:37:34.461Z,11.14
2018-11-10T13:38:42.594Z,11.19
2018-11-10T13:39:50.620Z,11.10
2018-11-10T13:40:58.683Z,11.18
2018-11-10T13:42:06.744Z,11.22
2018-11-10T13:43:14.894Z,11.29
2018-11-10T13:44:23.052Z,11.33
2018-11-10T13:45:30.921Z,11.35
2018-11-10T13:46:39.009Z,11.33
2018-11-10T13:47:47.081Z,11.25
2018-11-10T13:48:55.118Z,11.35
2018-11-10T13:50:03.201Z,11.29
2018-11-10T13:51:11.616Z,11.40
2018-11-10T13:52:19.709Z,11.44
2018-11-10T13:53:27.399Z,11.43
2018-11-10T13:54:35.455Z,11.51
2018-11-10T13:55:43.519Z,11.55
2018-11-10T13:56:51.588Z,11.60
2018-11-10T13:57:59.627Z,11.55
2018-11-10T13:59:07.706Z,11.60
2018-11-10T14:00:15.778Z,11.61
2018-11-10T14:01:23.830Z,11.61
2018-11-10T14:02:31.899Z,11.62
2018-11-10T14:03:39.981Z,11.58
2018-11-10T14:04:48.017Z,11.60
2018-11-10T14:05:56.076Z,11.46
2018-11-10T14:07:04.158Z,11.52
2018-11-10T14:08:12.210Z,11.47
2018-11-10T14:09:20.290Z,11.39
2018-11-10T14:10:28.369Z,11.51
2018-11-10T14:11:36.413Z,11.43
2018-11-10T14:12:44.544Z,11.51
2018-11-10T14:13:52.523Z,11.43
2018-11-10T14:15:00.601Z,11.46
2018-11-10T14:16:08.672Z,11.44
2018-11-10T14:17:16.724Z,11.46
2018-11-10T14:18:24.804Z,11.44
2018-11-10T14:19:32.837Z,11.28
2018-11-10T14:20:41.002Z,11.29
2018-11-10T14:21:48.991Z,11.28
2018-11-10T14:22:57.055Z,11.29
2018-11-10T14:24:05.122Z,11.32
2018-11-10T14:25:13.182Z,11.29
2018-11-10T14:26:21.335Z,11.32
2018-11-10T14:27:29.413Z,11.28
2018-11-10T14:28:37.363Z,11.36
2018-11-10T14:29:45.438Z,11.29
2018-11-10T14:30:53.472Z,11.28
2018-11-10T14:32:01.552Z,11.28
2018-11-10T14:33:09.615Z,11.29
2018-11-10T14:34:17.685Z,11.29
2018-11-10T14:35:25.756Z,11.24
2018-11-10T14:36:33.824Z,11.21
2018-11-10T14:37:41.894Z,11.22
2018-11-10T14:38:49.993Z,11.19
2018-11-10T14:39:58.002Z,11.15
2018-11-10T14:41:06.069Z,11.14
2018-11-10T14:42:14.150Z,11.14
2018-11-10T14:43:22.203Z,11.14
2018-11-10T14:44:30.254Z,11.10
2018-11-10T14:45:38.318Z,11.06
2018-11-10T14:46:46.384Z,11.10
2018-11-10T14:47:54.467Z,11.11
2018-11-10T14:49:02.525Z,11.10
2018-11-10T14:50:10.562Z,11.10
2018-11-10T14:51:18.664Z,11.10
2018-11-10T14:52:26.827Z,11.09
2018-11-10T14:53:34.808Z,11.06
2018-11-10T14:54:42.821Z,11.10
2018-11-10T14:55:50.887Z,11.14